< < Back
Terminal Aerodrome Forecast


Current Version              Previous Versions:   1  2  3  4  5  6  7  8  9  

Terminal Aerodrome Forecast

507
FTUS42 KMLB 210500
TAFDAB
TAF
KDAB 210535Z 2106/2206 00000KT P6SM OVC150
     FM211500 26003KT P6SM FEW040 BKN120 OVC250
     FM211900 06007KT P6SM SCT040 BKN150 OVC250
     FM220000 00000KT P6SM SCT090 BKN250=

Latest METAR

963
SAUS80 KWBC 210700 RRB
MTRDAB
METAR KDAB 210653Z COR 24003KT 9SM OVC130 21/20 A2996 RMK AO2 SLP144
T02110200


USA.gov is the U.S. government's official web portal to all federal, state and local government web resources and services.